sensor_id;sensor_type;location;lat;lon;timestamp;P1;durP1;ratioP1;P2;durP2;ratioP2
29302;SDS011;60019;45.556;12.004;2023-07-31T00:00:54;3.63;;;3.30;;
29302;SDS011;60019;45.556;12.004;2023-07-31T00:06:55;3.75;;;3.08;;
29302;SDS011;60019;45.556;12.004;2023-07-31T00:12:57;3.70;;;3.20;;
29302;SDS011;60019;45.556;12.004;2023-07-31T00:18:59;3.65;;;2.78;;
29302;SDS011;60019;45.556;12.004;2023-07-31T00:25:00;5.10;;;3.28;;
29302;SDS011;60019;45.556;12.004;2023-07-31T00:31:02;3.53;;;2.97;;
29302;SDS011;60019;45.556;12.004;2023-07-31T00:37:04;3.78;;;3.20;;
29302;SDS011;60019;45.556;12.004;2023-07-31T00:43:06;4.00;;;3.08;;
29302;SDS011;60019;45.556;12.004;2023-07-31T00:49:09;3.33;;;3.03;;
29302;SDS011;60019;45.556;12.004;2023-07-31T00:55:12;3.80;;;2.75;;
29302;SDS011;60019;45.556;12.004;2023-07-31T01:01:13;3.20;;;2.72;;
29302;SDS011;60019;45.556;12.004;2023-07-31T01:13:20;3.40;;;3.10;;
29302;SDS011;60019;45.556;12.004;2023-07-31T01:19:23;4.07;;;2.97;;
29302;SDS011;60019;45.556;12.004;2023-07-31T01:31:47;4.55;;;3.00;;
29302;SDS011;60019;45.556;12.004;2023-07-31T01:37:52;3.45;;;3.15;;
29302;SDS011;60019;45.556;12.004;2023-07-31T01:43:54;3.25;;;2.83;;
29302;SDS011;60019;45.556;12.004;2023-07-31T01:49:56;4.93;;;3.28;;
29302;SDS011;60019;45.556;12.004;2023-07-31T01:55:58;3.83;;;3.15;;
29302;SDS011;60019;45.556;12.004;2023-07-31T02:02:00;3.75;;;2.72;;
29302;SDS011;60019;45.556;12.004;2023-07-31T02:08:02;3.97;;;3.58;;
29302;SDS011;60019;45.556;12.004;2023-07-31T02:14:03;3.38;;;3.08;;
29302;SDS011;60019;45.556;12.004;2023-07-31T02:20:05;2.97;;;2.72;;
29302;SDS011;60019;45.556;12.004;2023-07-31T02:26:08;3.10;;;2.67;;
29302;SDS011;60019;45.556;12.004;2023-07-31T02:32:10;4.20;;;2.78;;
29302;SDS011;60019;45.556;12.004;2023-07-31T02:38:11;5.65;;;3.03;;
29302;SDS011;60019;45.556;12.004;2023-07-31T02:44:13;4.45;;;2.90;;
29302;SDS011;60019;45.556;12.004;2023-07-31T02:50:15;2.83;;;2.63;;
29302;SDS011;60019;45.556;12.004;2023-07-31T02:56:17;3.33;;;3.03;;
29302;SDS011;60019;45.556;12.004;2023-07-31T03:02:19;3.13;;;2.78;;
29302;SDS011;60019;45.556;12.004;2023-07-31T03:08:20;3.15;;;2.85;;
29302;SDS011;60019;45.556;12.004;2023-07-31T03:14:24;2.97;;;2.67;;
29302;SDS011;60019;45.556;12.004;2023-07-31T03:20:27;5.78;;;3.08;;
29302;SDS011;60019;45.556;12.004;2023-07-31T03:26:30;2.95;;;2.40;;
29302;SDS011;60019;45.556;12.004;2023-07-31T03:32:32;3.58;;;2.80;;
29302;SDS011;60019;45.556;12.004;2023-07-31T03:38:34;3.70;;;2.83;;
29302;SDS011;60019;45.556;12.004;2023-07-31T03:44:36;3.35;;;2.65;;
29302;SDS011;60019;45.556;12.004;2023-07-31T03:50:39;3.55;;;3.03;;
29302;SDS011;60019;45.556;12.004;2023-07-31T03:56:41;2.80;;;2.55;;
29302;SDS011;60019;45.556;12.004;2023-07-31T04:02:43;2.63;;;2.40;;
29302;SDS011;60019;45.556;12.004;2023-07-31T04:08:44;3.00;;;2.72;;
29302;SDS011;60019;45.556;12.004;2023-07-31T04:14:46;3.20;;;2.50;;
29302;SDS011;60019;45.556;12.004;2023-07-31T04:20:48;3.88;;;2.92;;
29302;SDS011;60019;45.556;12.004;2023-07-31T04:26:50;2.50;;;2.28;;
29302;SDS011;60019;45.556;12.004;2023-07-31T04:32:52;2.95;;;2.72;;
29302;SDS011;60019;45.556;12.004;2023-07-31T04:38:53;3.00;;;2.70;;
29302;SDS011;60019;45.556;12.004;2023-07-31T04:44:55;3.58;;;2.80;;
29302;SDS011;60019;45.556;12.004;2023-07-31T04:50:57;4.32;;;3.08;;
29302;SDS011;60019;45.556;12.004;2023-07-31T04:56:59;3.05;;;2.80;;
29302;SDS011;60019;45.556;12.004;2023-07-31T05:03:00;3.42;;;3.13;;
29302;SDS011;60019;45.556;12.004;2023-07-31T05:09:02;3.22;;;2.90;;
29302;SDS011;60019;45.556;12.004;2023-07-31T05:15:04;3.08;;;2.78;;
29302;SDS011;60019;45.556;12.004;2023-07-31T05:21:06;3.00;;;2.75;;
29302;SDS011;60019;45.556;12.004;2023-07-31T05:27:08;2.55;;;2.25;;
29302;SDS011;60019;45.556;12.004;2023-07-31T05:33:10;3.80;;;3.22;;
29302;SDS011;60019;45.556;12.004;2023-07-31T05:39:12;3.53;;;2.38;;
29302;SDS011;60019;45.556;12.004;2023-07-31T05:45:14;2.58;;;2.38;;
29302;SDS011;60019;45.556;12.004;2023-07-31T05:51:16;4.07;;;2.65;;
29302;SDS011;60019;45.556;12.004;2023-07-31T05:57:17;6.63;;;2.70;;
29302;SDS011;60019;45.556;12.004;2023-07-31T06:03:19;2.90;;;2.47;;
29302;SDS011;60019;45.556;12.004;2023-07-31T06:09:21;2.35;;;2.15;;
29302;SDS011;60019;45.556;12.004;2023-07-31T06:15:23;2.72;;;2.30;;
29302;SDS011;60019;45.556;12.004;2023-07-31T06:21:24;3.75;;;1.95;;
29302;SDS011;60019;45.556;12.004;2023-07-31T06:27:26;3.47;;;2.10;;
29302;SDS011;60019;45.556;12.004;2023-07-31T06:33:28;3.72;;;2.15;;
29302;SDS011;60019;45.556;12.004;2023-07-31T06:39:30;5.15;;;2.00;;
29302;SDS011;60019;45.556;12.004;2023-07-31T06:45:31;3.28;;;2.50;;
29302;SDS011;60019;45.556;12.004;2023-07-31T06:51:33;1.70;;;1.60;;
29302;SDS011;60019;45.556;12.004;2023-07-31T06:57:36;5.88;;;2.00;;
29302;SDS011;60019;45.556;12.004;2023-07-31T07:03:38;2.05;;;1.67;;
29302;SDS011;60019;45.556;12.004;2023-07-31T07:09:40;2.50;;;1.95;;
29302;SDS011;60019;45.556;12.004;2023-07-31T07:15:41;3.15;;;2.10;;
29302;SDS011;60019;45.556;12.004;2023-07-31T07:21:43;2.42;;;1.65;;
29302;SDS011;60019;45.556;12.004;2023-07-31T07:27:45;4.63;;;2.15;;
29302;SDS011;60019;45.556;12.004;2023-07-31T07:33:47;4.25;;;1.80;;
29302;SDS011;60019;45.556;12.004;2023-07-31T07:39:48;5.82;;;1.77;;
29302;SDS011;60019;45.556;12.004;2023-07-31T07:45:50;4.57;;;2.17;;
29302;SDS011;60019;45.556;12.004;2023-07-31T07:51:52;5.82;;;2.35;;
29302;SDS011;60019;45.556;12.004;2023-07-31T07:57:54;13.23;;;3.38;;
29302;SDS011;60019;45.556;12.004;2023-07-31T08:03:55;8.88;;;3.22;;
29302;SDS011;60019;45.556;12.004;2023-07-31T08:09:57;6.13;;;2.58;;
29302;SDS011;60019;45.556;12.004;2023-07-31T08:15:59;4.00;;;2.58;;
29302;SDS011;60019;45.556;12.004;2023-07-31T08:22:00;7.32;;;2.30;;
29302;SDS011;60019;45.556;12.004;2023-07-31T08:28:03;3.22;;;1.90;;
29302;SDS011;60019;45.556;12.004;2023-07-31T08:34:05;5.60;;;2.55;;
29302;SDS011;60019;45.556;12.004;2023-07-31T08:40:07;4.78;;;2.45;;
29302;SDS011;60019;45.556;12.004;2023-07-31T08:46:08;4.38;;;2.55;;
29302;SDS011;60019;45.556;12.004;2023-07-31T08:52:11;2.38;;;2.05;;
29302;SDS011;60019;45.556;12.004;2023-07-31T08:58:13;3.65;;;2.28;;
29302;SDS011;60019;45.556;12.004;2023-07-31T09:04:15;3.25;;;2.30;;
29302;SDS011;60019;45.556;12.004;2023-07-31T09:10:18;6.50;;;2.50;;
29302;SDS011;60019;45.556;12.004;2023-07-31T09:16:26;6.25;;;2.38;;
29302;SDS011;60019;45.556;12.004;2023-07-31T09:22:32;2.42;;;2.22;;
29302;SDS011;60019;45.556;12.004;2023-07-31T09:28:34;5.03;;;2.33;;
29302;SDS011;60019;45.556;12.004;2023-07-31T09:34:37;3.53;;;2.55;;
29302;SDS011;60019;45.556;12.004;2023-07-31T09:40:43;3.78;;;2.20;;
29302;SDS011;60019;45.556;12.004;2023-07-31T09:46:45;2.95;;;1.85;;
29302;SDS011;60019;45.556;12.004;2023-07-31T09:52:47;2.08;;;1.88;;
29302;SDS011;60019;45.556;12.004;2023-07-31T09:58:49;4.65;;;2.05;;
29302;SDS011;60019;45.556;12.004;2023-07-31T10:04:51;2.88;;;1.92;;
29302;SDS011;60019;45.556;12.004;2023-07-31T10:10:54;2.10;;;1.90;;
29302;SDS011;60019;45.556;12.004;2023-07-31T10:16:58;3.83;;;1.85;;
29302;SDS011;60019;45.556;12.004;2023-07-31T10:23:01;3.95;;;2.10;;
29302;SDS011;60019;45.556;12.004;2023-07-31T10:29:04;3.38;;;2.08;;
29302;SDS011;60019;45.556;12.004;2023-07-31T10:35:06;3.42;;;2.08;;
29302;SDS011;60019;45.556;12.004;2023-07-31T10:41:09;4.80;;;2.40;;
29302;SDS011;60019;45.556;12.004;2023-07-31T10:47:13;2.78;;;1.95;;
29302;SDS011;60019;45.556;12.004;2023-07-31T10:53:25;7.30;;;2.05;;
29302;SDS011;60019;45.556;12.004;2023-07-31T10:59:27;2.20;;;2.00;;
29302;SDS011;60019;45.556;12.004;2023-07-31T11:11:50;2.58;;;2.13;;
29302;SDS011;60019;45.556;12.004;2023-07-31T11:17:53;5.72;;;2.25;;
29302;SDS011;60019;45.556;12.004;2023-07-31T11:23:58;2.97;;;2.10;;
29302;SDS011;60019;45.556;12.004;2023-07-31T11:30:00;3.72;;;1.98;;
29302;SDS011;60019;45.556;12.004;2023-07-31T11:36:02;2.13;;;1.92;;
29302;SDS011;60019;45.556;12.004;2023-07-31T11:42:05;2.55;;;2.35;;
29302;SDS011;60019;45.556;12.004;2023-07-31T11:48:06;2.97;;;2.15;;
29302;SDS011;60019;45.556;12.004;2023-07-31T11:54:08;2.35;;;2.10;;
29302;SDS011;60019;45.556;12.004;2023-07-31T12:00:12;5.15;;;2.30;;
29302;SDS011;60019;45.556;12.004;2023-07-31T12:06:15;3.90;;;2.20;;
29302;SDS011;60019;45.556;12.004;2023-07-31T12:12:20;3.58;;;2.33;;
29302;SDS011;60019;45.556;12.004;2023-07-31T12:18:23;3.25;;;2.05;;
29302;SDS011;60019;45.556;12.004;2023-07-31T12:24:26;2.45;;;1.80;;
29302;SDS011;60019;45.556;12.004;2023-07-31T12:30:28;2.95;;;2.65;;
29302;SDS011;60019;45.556;12.004;2023-07-31T12:36:31;3.17;;;1.95;;
29302;SDS011;60019;45.556;12.004;2023-07-31T12:42:36;5.88;;;2.40;;
29302;SDS011;60019;45.556;12.004;2023-07-31T12:48:38;3.13;;;2.05;;
29302;SDS011;60019;45.556;12.004;2023-07-31T12:54:40;2.45;;;2.20;;
29302;SDS011;60019;45.556;12.004;2023-07-31T13:00:42;1.67;;;1.58;;
29302;SDS011;60019;45.556;12.004;2023-07-31T13:06:43;1.80;;;1.70;;
29302;SDS011;60019;45.556;12.004;2023-07-31T13:12:46;5.20;;;1.83;;
29302;SDS011;60019;45.556;12.004;2023-07-31T13:18:48;2.30;;;1.88;;
29302;SDS011;60019;45.556;12.004;2023-07-31T13:24:49;2.45;;;1.83;;
29302;SDS011;60019;45.556;12.004;2023-07-31T13:30:51;2.08;;;1.80;;
29302;SDS011;60019;45.556;12.004;2023-07-31T13:36:54;2.20;;;1.42;;
29302;SDS011;60019;45.556;12.004;2023-07-31T13:42:59;1.80;;;1.70;;
29302;SDS011;60019;45.556;12.004;2023-07-31T13:49:00;1.80;;;1.70;;
29302;SDS011;60019;45.556;12.004;2023-07-31T13:55:02;2.13;;;1.92;;
29302;SDS011;60019;45.556;12.004;2023-07-31T14:01:04;1.90;;;1.70;;
29302;SDS011;60019;45.556;12.004;2023-07-31T14:07:06;2.05;;;1.75;;
29302;SDS011;60019;45.556;12.004;2023-07-31T14:13:07;2.50;;;1.67;;
29302;SDS011;60019;45.556;12.004;2023-07-31T14:19:09;1.50;;;1.40;;
29302;SDS011;60019;45.556;12.004;2023-07-31T14:25:11;1.75;;;1.65;;
29302;SDS011;60019;45.556;12.004;2023-07-31T14:31:14;3.40;;;1.70;;
29302;SDS011;60019;45.556;12.004;2023-07-31T14:37:15;1.60;;;1.50;;
29302;SDS011;60019;45.556;12.004;2023-07-31T14:43:17;2.72;;;1.92;;
29302;SDS011;60019;45.556;12.004;2023-07-31T14:49:19;1.73;;;1.60;;
29302;SDS011;60019;45.556;12.004;2023-07-31T14:55:21;3.05;;;2.08;;
29302;SDS011;60019;45.556;12.004;2023-07-31T15:01:23;1.98;;;1.50;;
29302;SDS011;60019;45.556;12.004;2023-07-31T15:07:24;1.60;;;1.50;;
29302;SDS011;60019;45.556;12.004;2023-07-31T15:13:26;2.35;;;1.42;;
29302;SDS011;60019;45.556;12.004;2023-07-31T15:19:28;4.60;;;1.77;;
29302;SDS011;60019;45.556;12.004;2023-07-31T15:25:31;3.97;;;2.08;;
29302;SDS011;60019;45.556;12.004;2023-07-31T15:31:32;1.95;;;1.70;;
29302;SDS011;60019;45.556;12.004;2023-07-31T15:37:34;1.70;;;1.60;;
29302;SDS011;60019;45.556;12.004;2023-07-31T15:43:36;2.42;;;2.08;;
29302;SDS011;60019;45.556;12.004;2023-07-31T15:49:38;2.60;;;1.80;;
29302;SDS011;60019;45.556;12.004;2023-07-31T15:55:40;1.60;;;1.50;;
29302;SDS011;60019;45.556;12.004;2023-07-31T16:01:41;1.50;;;1.40;;
29302;SDS011;60019;45.556;12.004;2023-07-31T16:07:43;1.55;;;1.45;;
29302;SDS011;60019;45.556;12.004;2023-07-31T16:13:45;1.60;;;1.50;;
29302;SDS011;60019;45.556;12.004;2023-07-31T16:19:46;1.60;;;1.50;;
29302;SDS011;60019;45.556;12.004;2023-07-31T16:25:48;2.28;;;2.08;;
29302;SDS011;60019;45.556;12.004;2023-07-31T16:31:50;2.08;;;1.88;;
29302;SDS011;60019;45.556;12.004;2023-07-31T16:37:52;1.83;;;1.58;;
29302;SDS011;60019;45.556;12.004;2023-07-31T16:43:53;3.13;;;1.77;;
29302;SDS011;60019;45.556;12.004;2023-07-31T16:49:55;3.20;;;2.13;;
29302;SDS011;60019;45.556;12.004;2023-07-31T16:55:57;3.17;;;2.13;;
29302;SDS011;60019;45.556;12.004;2023-07-31T17:02:02;7.47;;;1.92;;
29302;SDS011;60019;45.556;12.004;2023-07-31T17:08:04;1.98;;;1.70;;
29302;SDS011;60019;45.556;12.004;2023-07-31T17:14:06;3.25;;;1.60;;
29302;SDS011;60019;45.556;12.004;2023-07-31T17:20:08;2.08;;;1.50;;
29302;SDS011;60019;45.556;12.004;2023-07-31T17:26:10;6.30;;;1.50;;
29302;SDS011;60019;45.556;12.004;2023-07-31T17:32:13;2.30;;;2.05;;
29302;SDS011;60019;45.556;12.004;2023-07-31T17:38:15;2.13;;;1.63;;
29302;SDS011;60019;45.556;12.004;2023-07-31T17:44:17;2.33;;;1.70;;
29302;SDS011;60019;45.556;12.004;2023-07-31T17:50:19;5.32;;;1.98;;
29302;SDS011;60019;45.556;12.004;2023-07-31T17:56:20;2.20;;;2.00;;
29302;SDS011;60019;45.556;12.004;2023-07-31T18:02:22;3.35;;;2.22;;
29302;SDS011;60019;45.556;12.004;2023-07-31T18:08:24;2.53;;;1.83;;
29302;SDS011;60019;45.556;12.004;2023-07-31T18:14:26;2.80;;;1.90;;
29302;SDS011;60019;45.556;12.004;2023-07-31T18:20:28;1.70;;;1.60;;
29302;SDS011;60019;45.556;12.004;2023-07-31T18:26:32;4.28;;;1.92;;
29302;SDS011;60019;45.556;12.004;2023-07-31T18:32:35;2.03;;;1.58;;
29302;SDS011;60019;45.556;12.004;2023-07-31T18:38:37;2.83;;;2.05;;
29302;SDS011;60019;45.556;12.004;2023-07-31T18:44:39;2.60;;;2.40;;
29302;SDS011;60019;45.556;12.004;2023-07-31T18:50:41;3.70;;;1.98;;
29302;SDS011;60019;45.556;12.004;2023-07-31T18:56:43;2.38;;;1.98;;
29302;SDS011;60019;45.556;12.004;2023-07-31T19:02:45;4.55;;;2.30;;
29302;SDS011;60019;45.556;12.004;2023-07-31T19:08:47;3.22;;;2.38;;
29302;SDS011;60019;45.556;12.004;2023-07-31T19:14:49;4.13;;;1.67;;
29302;SDS011;60019;45.556;12.004;2023-07-31T19:20:51;9.50;;;1.92;;
29302;SDS011;60019;45.556;12.004;2023-07-31T19:26:53;4.30;;;2.42;;
29302;SDS011;60019;45.556;12.004;2023-07-31T19:32:55;2.95;;;2.22;;
29302;SDS011;60019;45.556;12.004;2023-07-31T19:38:57;2.75;;;2.22;;
29302;SDS011;60019;45.556;12.004;2023-07-31T19:44:58;4.40;;;2.45;;
29302;SDS011;60019;45.556;12.004;2023-07-31T19:51:00;4.30;;;2.10;;
29302;SDS011;60019;45.556;12.004;2023-07-31T19:57:02;2.38;;;1.92;;
29302;SDS011;60019;45.556;12.004;2023-07-31T20:03:04;2.20;;;2.00;;
29302;SDS011;60019;45.556;12.004;2023-07-31T20:09:06;2.85;;;2.08;;
29302;SDS011;60019;45.556;12.004;2023-07-31T20:15:17;2.10;;;1.80;;
29302;SDS011;60019;45.556;12.004;2023-07-31T20:21:19;2.55;;;2.05;;
29302;SDS011;60019;45.556;12.004;2023-07-31T20:27:21;2.72;;;1.75;;
29302;SDS011;60019;45.556;12.004;2023-07-31T20:33:23;4.85;;;2.15;;
29302;SDS011;60019;45.556;12.004;2023-07-31T20:39:25;2.58;;;1.52;;
29302;SDS011;60019;45.556;12.004;2023-07-31T20:45:27;3.88;;;2.42;;
29302;SDS011;60019;45.556;12.004;2023-07-31T20:51:30;2.33;;;1.92;;
29302;SDS011;60019;45.556;12.004;2023-07-31T20:57:33;2.47;;;2.17;;
29302;SDS011;60019;45.556;12.004;2023-07-31T21:03:34;4.00;;;3.33;;
29302;SDS011;60019;45.556;12.004;2023-07-31T21:09:36;3.30;;;3.00;;
29302;SDS011;60019;45.556;12.004;2023-07-31T21:15:38;2.65;;;2.35;;
29302;SDS011;60019;45.556;12.004;2023-07-31T21:21:41;2.67;;;2.42;;
29302;SDS011;60019;45.556;12.004;2023-07-31T21:27:42;4.32;;;2.38;;
29302;SDS011;60019;45.556;12.004;2023-07-31T21:33:44;5.35;;;2.92;;
29302;SDS011;60019;45.556;12.004;2023-07-31T21:39:46;2.85;;;2.55;;
29302;SDS011;60019;45.556;12.004;2023-07-31T21:45:49;3.17;;;2.83;;
29302;SDS011;60019;45.556;12.004;2023-07-31T21:51:51;3.88;;;3.22;;
29302;SDS011;60019;45.556;12.004;2023-07-31T21:57:52;3.50;;;3.10;;
29302;SDS011;60019;45.556;12.004;2023-07-31T22:03:54;7.43;;;3.70;;
29302;SDS011;60019;45.556;12.004;2023-07-31T22:09:56;5.50;;;3.38;;
29302;SDS011;60019;45.556;12.004;2023-07-31T22:15:58;5.75;;;3.50;;
29302;SDS011;60019;45.556;12.004;2023-07-31T22:22:00;3.72;;;2.95;;
29302;SDS011;60019;45.556;12.004;2023-07-31T22:28:01;4.43;;;3.13;;
29302;SDS011;60019;45.556;12.004;2023-07-31T22:41:09;5.47;;;2.88;;
29302;SDS011;60019;45.556;12.004;2023-07-31T22:47:11;2.75;;;2.28;;
29302;SDS011;60019;45.556;12.004;2023-07-31T22:53:13;3.75;;;2.95;;
29302;SDS011;60019;45.556;12.004;2023-07-31T22:59:14;2.88;;;2.58;;
29302;SDS011;60019;45.556;12.004;2023-07-31T23:05:16;3.78;;;3.17;;
29302;SDS011;60019;45.556;12.004;2023-07-31T23:11:18;2.80;;;2.60;;
29302;SDS011;60019;45.556;12.004;2023-07-31T23:17:20;3.20;;;2.83;;
29302;SDS011;60019;45.556;12.004;2023-07-31T23:23:22;4.68;;;3.45;;
29302;SDS011;60019;45.556;12.004;2023-07-31T23:29:24;3.67;;;2.97;;
29302;SDS011;60019;45.556;12.004;2023-07-31T23:35:29;4.95;;;3.88;;
29302;SDS011;60019;45.556;12.004;2023-07-31T23:41:31;5.38;;;3.75;;
29302;SDS011;60019;45.556;12.004;2023-07-31T23:47:32;7.95;;;3.60;;
29302;SDS011;60019;45.556;12.004;2023-07-31T23:53:34;5.97;;;3.78;;
29302;SDS011;60019;45.556;12.004;2023-07-31T23:59:36;4.95;;;3.35;;
